Dirección General De Aeronáutica Civil

Dirección Meteorológica de Chile - Servicios Climáticos

Informe General de Control de Calidad de la Estación

Listado de niveles de control de calidad para algunos parámetros
Estación Iquique, Los Condores Ad. (200005)
Fecha de Revisión de los datos :

Elementos

Registros Niveles de Control Total
Nivel 0 Nivel 1 Nivel 2 Nivel 3 Errores Porcentaje
01 Temperatura del Aire Seco 31.312 0 . 47 0.15 % 0 . 0 . 47 0.15 %
02 Temperatura de Rocío 27.324 0 . 0 . 0 . 0 . 0 0.00 %
03 Humedad Relativa del Aire 21.830 0 . 0 . 0 . 0 . 0 0.00 %
04 Temperatura Máxima PM 5.176 0 . 0 . 160 3.09 % 0 . 160 3.09 %
05 Temperatura Mínima AM 5.800 0 . 0 . 142 2.45 % 0 . 142 2.45 %
06 Viento a 10 m. de Altura 41.623 3 0.01 % 50 0.12 % 8 0.02 % 0 . 61 0.15 %
07 Agua Caida, Acumulada 6 Horas 15.127 0 . 0 . 0 . 0 . 0 0.00 %
08 Presión Atm. a Nivel de Estación (QFE) 22.203 0 . 0 . 0 . 0 . 0 0.00 %
09 Presión Atm. a Nivel Medio del Mar (QFF) 30.099 0 . 0 . 0 . 0 . 0 0.00 %
10 Tiempo Pasado Sinóptico 3.239 0 . 0 . 0 . 0 . 0 0.00 %
11 Tiempo Presente Sinóptico 45.545 0 . 0 . 0 . 0 . 0 0.00 %

Totales

249.278 . 0.0012 % . 0.0389 % . 0.1244 % . 0.0000 % 410 0.1645 %

Detalle de Errores Encontrados

Nivel Fecha del Dato Descripción Información Error Fecha Ingreso
0 1952-03-01 15:00:00 ff (Intensidad del Viento) debe ser numerico, entre 0 y 70 kt. 78 2014-06-13 16:39:00
0 1954-07-16 21:00:00 ff (Intensidad del Viento) debe ser numerico, entre 0 y 70 kt. 90 2012-10-25 15:35:00
0 1954-08-09 12:00:00 ff (Intensidad del Viento) debe ser numerico, entre 0 y 70 kt. 140 2012-10-29 13:52:00
Errores del Nivel 3
Nivel Fecha del Dato Descripción Información Error Fecha Ingreso
1 1952-01-26 06:00:00 Viento calma fue mal ingresado. dd = 0 - ff = 2 2014-06-12 14:46:00
1 1952-03-14 09:00:00 Viento calma fue mal ingresado. dd = 270 - ff = 0 2014-06-13 20:06:00
1 1952-03-17 06:00:00 ff < 19kt y ((ww >= 31 y ww <= 35) o (ww == 37 o ww == 39 o ww >= 98))) 2014-06-16 13:31:00
1 1952-04-23 08:00:00 Viento calma fue mal ingresado. dd = 0 - ff = 2 2014-06-17 14:47:00
1 1952-04-24 08:00:00 Viento calma fue mal ingresado. dd = 0 - ff = 4 2014-06-17 14:58:00
1 1952-05-27 18:00:00 Viento calma fue mal ingresado. dd = 270 - ff = 0 2014-06-18 15:32:00
1 1952-06-03 12:00:00 Viento calma fue mal ingresado. dd = 270 - ff = 0 2014-06-18 18:24:00
1 1952-06-27 19:00:00 Viento calma fue mal ingresado. dd = 270 - ff = 0 2014-06-20 13:07:00
1 1952-07-12 14:00:00 Viento calma fue mal ingresado. dd = 270 - ff = 0 2014-06-24 14:42:00
1 1952-07-13 10:00:00 Viento calma fue mal ingresado. dd = 0 - ff = 2 2014-06-24 14:52:00
1 1952-07-24 14:00:00 Viento calma fue mal ingresado. dd = 270 - ff = 0 2014-06-24 19:06:00
1 1952-07-24 15:00:00 Viento calma fue mal ingresado. dd = 270 - ff = 0 2014-06-24 19:06:00
1 1952-08-21 17:00:00 Viento calma fue mal ingresado. dd = 270 - ff = 0 2014-06-25 18:39:00
1 1952-08-24 09:00:00 Viento calma fue mal ingresado. dd = 0 - ff = 20 2014-06-25 21:01:00
1 1952-09-01 14:00:00 Viento calma fue mal ingresado. dd = 270 - ff = 0 2014-06-26 15:27:00
1 1952-09-01 15:00:00 Viento calma fue mal ingresado. dd = 270 - ff = 0 2014-06-26 15:27:00
1 1952-09-01 16:00:00 Viento calma fue mal ingresado. dd = 270 - ff = 0 2014-06-26 15:27:00
1 1952-09-01 17:00:00 Viento calma fue mal ingresado. dd = 270 - ff = 0 2014-06-26 15:27:00
1 1952-09-17 18:00:00 Viento calma fue mal ingresado. dd = 270 - ff = 0 2014-06-26 20:59:00
1 1952-10-23 12:00:00 Viento calma fue mal ingresado. dd = 0 - ff = 2 2014-07-01 13:15:00
1 1952-12-25 12:00:00 Viento calma fue mal ingresado. dd = 270 - ff = 0 2014-07-03 16:37:00
1 1952-12-25 13:00:00 Viento calma fue mal ingresado. dd = 270 - ff = 0 2014-07-03 16:37:00
1 1954-03-16 13:00:00 Viento calma fue mal ingresado. dd = 270 - ff = 0 2012-10-09 13:28:00
1 1954-03-16 23:00:00 Viento calma fue mal ingresado. dd = 270 - ff = 0 2012-10-09 13:29:00
1 1954-03-18 16:00:00 Viento calma fue mal ingresado. dd = 270 - ff = 0 2012-10-09 14:17:00
1 1954-03-23 23:00:00 Viento calma fue mal ingresado. dd = 270 - ff = 0 2012-10-09 18:15:00
1 1954-04-05 23:00:00 Viento calma fue mal ingresado. dd = 270 - ff = 0 2012-10-10 13:55:00
1 1954-04-09 10:00:00 Viento calma fue mal ingresado. dd = 90 - ff = 0 2012-10-10 17:17:00
1 1954-04-09 11:00:00 Viento calma fue mal ingresado. dd = 0 - ff = 2 2012-10-10 16:07:00
1 1954-04-09 14:00:00 Viento calma fue mal ingresado. dd = 270 - ff = 0 2012-10-10 17:15:00
1 1954-04-15 14:00:00 Viento calma fue mal ingresado. dd = 270 - ff = 0 2012-10-10 20:56:00
1 1954-04-18 22:00:00 Viento calma fue mal ingresado. dd = 270 - ff = 0 2012-10-11 14:06:00
1 1954-04-18 23:00:00 Viento calma fue mal ingresado. dd = 270 - ff = 0 2012-10-11 14:09:00
1 1954-04-22 23:00:00 Viento calma fue mal ingresado. dd = 270 - ff = 0 2012-10-12 15:01:00
1 1954-05-15 16:00:00 Viento calma fue mal ingresado. dd = 270 - ff = 0 2012-10-17 13:55:00
1 1954-05-20 16:00:00 Viento calma fue mal ingresado. dd = 0 - ff = 4 2012-10-17 18:01:00
1 1954-06-14 12:00:00 Viento calma fue mal ingresado. dd = 90 - ff = 0 2012-10-22 13:41:00
1 1954-06-17 13:00:00 Viento calma fue mal ingresado. dd = 0 - ff = 9 2012-10-22 14:52:00
1 1954-06-17 14:00:00 Viento calma fue mal ingresado. dd = 0 - ff = 6 2012-10-22 14:52:00
1 1954-06-21 12:00:00 Viento calma fue mal ingresado. dd = 90 - ff = 0 2012-10-22 17:23:00
1 1954-07-05 13:00:00 Viento calma fue mal ingresado. dd = 270 - ff = 0 2012-10-24 15:41:00
1 1954-07-28 14:00:00 Viento calma fue mal ingresado. dd = 90 - ff = 0 2012-10-26 13:47:00
1 1954-07-30 23:00:00 Viento calma fue mal ingresado. dd = 270 - ff = 0 2012-10-26 14:33:00
1 1954-08-26 21:00:00 Viento calma fue mal ingresado. dd = 270 - ff = 0 2012-10-30 13:34:00
1 1954-08-29 10:00:00 Viento calma fue mal ingresado. dd = 0 - ff = 3 2012-10-30 15:00:00
1 1954-08-29 13:00:00 Viento calma fue mal ingresado. dd = 90 - ff = 0 2012-10-30 15:01:00
1 1954-08-29 14:00:00 Viento calma fue mal ingresado. dd = 0 - ff = 2 2012-10-30 15:01:00
1 1954-08-29 15:00:00 Viento calma fue mal ingresado. dd = 270 - ff = 0 2012-10-30 15:01:00
1 1954-09-16 15:00:00 Viento calma fue mal ingresado. dd = 270 - ff = 0 2012-10-31 17:42:00
1 1954-10-14 22:00:00 Viento calma fue mal ingresado. dd = 270 - ff = 0 2012-11-06 14:59:00
1 1963-11-03 15:00:00 Ts debe ser mayor o igual a Td Ts=12.0 - Td=13.6 2012-12-03 12:40:00
1 1963-12-04 12:00:00 Ts debe ser mayor o igual a Td Ts=10.2 - Td=14.4 2012-12-03 12:40:00
1 1964-01-13 21:00:00 Ts debe ser mayor o igual a Td Ts=15.6 - Td=18.6 2012-12-03 12:40:00
1 1964-01-24 09:00:00 Ts debe ser mayor o igual a Td Ts=12.2 - Td=13.8 2012-12-03 12:40:00
1 1966-06-25 12:00:00 Ts debe ser mayor o igual a Td Ts=6.4 - Td=6.8 2012-12-03 12:40:00
1 1966-09-02 09:00:00 Ts debe ser mayor o igual a Td Ts=7.5 - Td=8.1 2012-12-03 12:40:00
1 1966-10-06 06:00:00 Ts debe ser mayor o igual a Td Ts=9.0 - Td=10.4 2012-12-03 12:41:00
1 1966-10-07 21:00:00 Ts debe ser mayor o igual a Td Ts=10.0 - Td=11.4 2012-12-03 12:41:00
1 1966-10-21 09:00:00 Ts debe ser mayor o igual a Td Ts=9.0 - Td=9.5 2012-12-03 12:41:00
1 1966-10-27 18:00:00 Ts debe ser mayor o igual a Td Ts=10.0 - Td=13.9 2012-12-03 12:41:00
1 1966-11-05 06:00:00 Ts debe ser mayor o igual a Td Ts=10.0 - Td=10.5 2012-12-03 12:41:00
1 1967-01-03 21:00:00 Ts debe ser mayor o igual a Td Ts=13.0 - Td=16.8 2012-12-03 12:41:00
1 1967-01-31 00:00:00 Ts debe ser mayor o igual a Td Ts=16.0 - Td=18.5 2012-12-03 12:41:00
1 1967-02-04 00:00:00 Ts debe ser mayor o igual a Td Ts=17.0 - Td=18.1 2012-12-03 12:41:00
1 1967-02-04 06:00:00 Ts debe ser mayor o igual a Td Ts=17.0 - Td=18.2 2012-12-03 12:41:00
1 1967-02-04 09:00:00 Ts debe ser mayor o igual a Td Ts=17.0 - Td=18.5 2012-12-03 12:41:00
1 1967-02-18 09:00:00 Ts debe ser mayor o igual a Td Ts=12.3 - Td=17.3 2012-12-03 12:41:00
1 1967-03-08 18:00:00 Ts debe ser mayor o igual a Td Ts=14.0 - Td=18.7 2012-12-03 12:42:00
1 1967-04-17 12:00:00 Ts debe ser mayor o igual a Td Ts=12.4 - Td=14.2 2012-12-03 12:42:00
1 1967-05-29 21:00:00 Ts debe ser mayor o igual a Td Ts=10.6 - Td=13.6 2012-12-03 12:42:00
1 1967-07-19 12:00:00 Ts debe ser mayor o igual a Td Ts=9.0 - Td=9.4 2012-12-03 12:42:00
1 1967-08-06 12:00:00 Ts debe ser mayor o igual a Td Ts=6.0 - Td=6.2 2012-12-03 12:42:00
1 1967-08-18 12:00:00 Ts debe ser mayor o igual a Td Ts=7.0 - Td=9.2 2012-12-03 12:42:00
1 1967-08-23 12:00:00 Ts debe ser mayor o igual a Td Ts=7.0 - Td=7.4 2012-12-03 12:42:00
1 1967-08-24 21:00:00 Ts debe ser mayor o igual a Td Ts=9.0 - Td=9.7 2012-12-03 12:42:00
1 1967-09-15 12:00:00 Ts debe ser mayor o igual a Td Ts=7.0 - Td=7.4 2012-12-03 12:43:00
1 1967-10-02 18:00:00 Ts debe ser mayor o igual a Td Ts=10.0 - Td=12.1 2012-12-03 12:43:00
1 1967-10-03 18:00:00 Ts debe ser mayor o igual a Td Ts=8.0 - Td=13.0 2012-12-03 12:43:00
1 1967-10-18 21:00:00 Ts debe ser mayor o igual a Td Ts=11.0 - Td=11.7 2012-12-03 12:43:00
1 1967-11-06 15:00:00 Ts debe ser mayor o igual a Td Ts=12.0 - Td=12.4 2012-12-03 12:43:00
1 1967-11-22 21:00:00 Ts debe ser mayor o igual a Td Ts=18.0 - Td=20.4 2012-12-03 12:43:00
1 1967-11-24 21:00:00 Ts debe ser mayor o igual a Td Ts=12.0 - Td=15.3 2012-12-03 12:43:00
1 1967-12-20 15:00:00 Ts debe ser mayor o igual a Td Ts=10.0 - Td=18.9 2012-12-03 12:43:00
1 1968-03-10 12:00:00 Ts debe ser mayor o igual a Td Ts=14.0 - Td=25.2 2012-12-03 12:44:00
1 1968-03-16 21:00:00 Ts debe ser mayor o igual a Td Ts=19.2 - Td=40.9 2012-12-03 12:44:00
1 1968-04-02 15:00:00 Ts debe ser mayor o igual a Td Ts=14.2 - Td=17.0 2012-12-03 12:44:00
1 1968-04-13 00:00:00 Ts debe ser mayor o igual a Td Ts=13.0 - Td=20.3 2012-12-03 12:44:00
1 1968-04-19 18:00:00 Ts debe ser mayor o igual a Td Ts=13.7 - Td=16.0 2012-12-03 12:44:00
1 1968-06-07 06:00:00 Ts debe ser mayor o igual a Td Ts=9.0 - Td=10.4 2012-12-03 12:44:00
1 1968-06-18 06:00:00 Ts debe ser mayor o igual a Td Ts=8.9 - Td=22.3 2012-12-03 12:44:00
1 1968-06-28 03:00:00 Ts debe ser mayor o igual a Td Ts=9.1 - Td=9.5 2012-12-03 12:44:00
1 1968-06-28 12:00:00 Ts debe ser mayor o igual a Td Ts=7.3 - Td=10.2 2012-12-03 12:44:00
1 1968-07-12 00:00:00 Ts debe ser mayor o igual a Td Ts=11.0 - Td=11.3 2012-12-03 12:44:00
1 1968-08-03 03:00:00 Ts debe ser mayor o igual a Td Ts=9.9 - Td=11.1 2012-12-03 12:44:00
1 1968-09-03 03:00:00 Ts debe ser mayor o igual a Td Ts=9.4 - Td=10.1 2012-12-03 12:45:00
1 1968-11-07 06:00:00 Ts debe ser mayor o igual a Td Ts=11.0 - Td=11.9 2012-12-03 12:45:00
1 1968-12-03 21:00:00 Ts debe ser mayor o igual a Td Ts=12.1 - Td=17.7 2012-12-03 12:45:00
Errores del Nivel 97
Nivel Fecha del Dato Descripción Información Error Fecha Ingreso
2 1952-03-01 15:00:00 Variación horaria de Intensidad del viento fuera de rango (1 hora Antes) 78 - 8 2014-06-13 16:39:00
2 1952-03-01 16:00:00 Variación horaria de Intensidad del viento fuera de rango (1 hora Antes) 5 - 78 2014-06-13 16:39:00
2 1954-07-16 21:00:00 Variación horaria de Intensidad del viento fuera de rango (1 hora Antes) 90 - 10 2012-10-25 15:35:00
2 1954-07-16 22:00:00 Variación horaria de Intensidad del viento fuera de rango (1 hora Antes) 6 - 90 2012-10-25 15:36:00
2 1954-08-09 12:00:00 Variación horaria de Intensidad del viento fuera de rango (1 hora Antes) 140 - 0 2012-10-29 13:52:00
2 1954-08-09 13:00:00 Variación horaria de Intensidad del viento fuera de rango (1 hora Antes) 8 - 140 2012-10-29 13:52:00
2 1954-08-09 15:00:00 Variación Tri-horaria de Intensidad del viento fuera de rango (3 hora Antes) 0 - 140 2012-10-29 13:53:00
2 1954-11-19 23:00:00 Variación horaria de Intensidad del viento fuera de rango (1 hora Antes) 65 - 6 2012-11-09 13:51:00
2 1952-01-09 00:00:00 Temperatura 23.0 del 08-01-1952 13:00, Mayor que la Máxima 22.0 09-01-1952 00:00 23.0 -- 22.0 2014-06-20 14:47:00
2 1952-02-04 00:00:00 Temperatura 22.8 del 03-02-1952 14:00, Mayor que la Máxima 10.0 04-02-1952 00:00 22.8 -- 10.0 2014-06-20 15:10:00
2 1952-02-06 00:00:00 Temperatura 23.4 del 05-02-1952 15:00, Mayor que la Máxima 23.0 06-02-1952 00:00 23.4 -- 23.0 2014-06-20 15:10:00
2 1952-03-18 00:00:00 Temperatura 25.6 del 17-03-1952 18:00, Mayor que la Máxima 25.0 18-03-1952 00:00 25.6 -- 25.0 2014-06-20 15:58:00
2 1952-03-24 00:00:00 Temperatura 22.4 del 23-03-1952 15:00, Mayor que la Máxima 22.0 24-03-1952 00:00 22.4 -- 22.0 2014-06-20 16:00:00
2 1952-04-13 00:00:00 Temperatura 18.0 del 12-04-1952 13:00, Mayor que la Máxima 0.0 13-04-1952 00:00 18.0 -- 0.0 2014-06-20 16:23:00
2 1952-04-14 00:00:00 Temperatura 19.8 del 13-04-1952 14:00, Mayor que la Máxima 0.0 14-04-1952 00:00 19.8 -- 0.0 2014-06-20 16:23:00
2 1952-04-15 00:00:00 Temperatura 19.0 del 14-04-1952 14:00, Mayor que la Máxima 0.0 15-04-1952 00:00 19.0 -- 0.0 2014-06-20 16:23:00
2 1952-04-16 00:00:00 Temperatura 18.4 del 15-04-1952 15:00, Mayor que la Máxima 0.0 16-04-1952 00:00 18.4 -- 0.0 2014-06-20 16:24:00
2 1952-04-17 00:00:00 Temperatura 20.0 del 16-04-1952 13:00, Mayor que la Máxima 0.0 17-04-1952 00:00 20.0 -- 0.0 2014-06-20 16:24:00
2 1952-04-18 00:00:00 Temperatura 20.4 del 17-04-1952 13:00, Mayor que la Máxima 0.0 18-04-1952 00:00 20.4 -- 0.0 2014-06-20 16:24:00
2 1952-04-19 00:00:00 Temperatura 19.4 del 18-04-1952 16:00, Mayor que la Máxima 0.0 19-04-1952 00:00 19.4 -- 0.0 2014-06-20 16:24:00
2 1952-04-20 00:00:00 Temperatura 19.4 del 19-04-1952 13:00, Mayor que la Máxima 0.0 20-04-1952 00:00 19.4 -- 0.0 2014-06-20 16:25:00
2 1952-04-21 00:00:00 Temperatura 21.0 del 20-04-1952 14:00, Mayor que la Máxima 0.0 21-04-1952 00:00 21.0 -- 0.0 2014-06-20 16:25:00
2 1952-04-22 00:00:00 Temperatura 21.5 del 21-04-1952 14:00, Mayor que la Máxima 0.0 22-04-1952 00:00 21.5 -- 0.0 2014-06-20 16:25:00
2 1952-04-23 00:00:00 Temperatura 21.0 del 22-04-1952 13:00, Mayor que la Máxima 0.0 23-04-1952 00:00 21.0 -- 0.0 2014-06-20 16:26:00
2 1952-04-24 00:00:00 Temperatura 19.0 del 23-04-1952 15:00, Mayor que la Máxima 0.0 24-04-1952 00:00 19.0 -- 0.0 2014-06-20 16:26:00
2 1952-04-25 00:00:00 Temperatura 18.2 del 24-04-1952 15:00, Mayor que la Máxima 0.0 25-04-1952 00:00 18.2 -- 0.0 2014-06-20 16:26:00
2 1952-04-26 00:00:00 Temperatura 18.7 del 25-04-1952 15:00, Mayor que la Máxima 0.0 26-04-1952 00:00 18.7 -- 0.0 2014-06-20 16:27:00
2 1952-04-27 00:00:00 Temperatura 21.0 del 26-04-1952 13:00, Mayor que la Máxima 0.0 27-04-1952 00:00 21.0 -- 0.0 2014-06-20 16:27:00
2 1952-04-28 00:00:00 Temperatura 18.4 del 27-04-1952 16:00, Mayor que la Máxima 0.0 28-04-1952 00:00 18.4 -- 0.0 2014-06-20 16:27:00
2 1952-04-29 00:00:00 Temperatura 19.3 del 28-04-1952 14:00, Mayor que la Máxima 0.0 29-04-1952 00:00 19.3 -- 0.0 2014-06-20 16:27:00
2 1952-04-30 00:00:00 Temperatura 18.8 del 29-04-1952 14:00, Mayor que la Máxima 0.0 30-04-1952 00:00 18.8 -- 0.0 2014-06-20 16:28:00
2 1952-05-01 00:00:00 Temperatura 19.8 del 30-04-1952 14:00, Mayor que la Máxima 0.0 01-05-1952 00:00 19.8 -- 0.0 2014-06-20 16:28:00
2 1952-05-02 00:00:00 Temperatura 18.0 del 01-05-1952 14:00, Mayor que la Máxima 0.0 02-05-1952 00:00 18.0 -- 0.0 2014-06-20 16:45:00
2 1952-05-04 00:00:00 Temperatura 18.8 del 03-05-1952 15:00, Mayor que la Máxima 0.0 04-05-1952 00:00 18.8 -- 0.0 2014-06-20 16:45:00
2 1952-05-05 00:00:00 Temperatura 18.8 del 04-05-1952 14:00, Mayor que la Máxima 0.0 05-05-1952 00:00 18.8 -- 0.0 2014-06-20 16:45:00
2 1952-05-07 00:00:00 Temperatura 20.0 del 06-05-1952 13:00, Mayor que la Máxima 19.4 07-05-1952 00:00 20.0 -- 19.4 2014-06-20 16:46:00
2 1952-06-11 00:00:00 Temperatura 19.5 del 10-06-1952 15:00, Mayor que la Máxima 16.5 11-06-1952 00:00 19.5 -- 16.5 2014-06-20 17:15:00
2 1952-06-20 00:00:00 Temperatura 24.3 del 19-06-1952 15:00, Mayor que la Máxima 23.0 20-06-1952 00:00 24.3 -- 23.0 2014-06-20 17:17:00
2 1952-07-21 00:00:00 Temperatura 13.2 del 20-07-1952 14:00, Mayor que la Máxima 12.0 21-07-1952 00:00 13.2 -- 12.0 2014-07-03 20:33:00
2 1952-08-06 00:00:00 Temperatura 14.2 del 05-08-1952 15:00, Mayor que la Máxima 12.0 06-08-1952 00:00 14.2 -- 12.0 2014-07-03 20:56:00
2 1952-08-29 00:00:00 Temperatura 16.0 del 28-08-1952 14:00, Mayor que la Máxima 15.8 29-08-1952 00:00 16.0 -- 15.8 2014-07-03 21:01:00
2 1952-08-31 00:00:00 Temperatura 16.2 del 30-08-1952 16:00, Mayor que la Máxima 16.0 31-08-1952 00:00 16.2 -- 16.0 2014-07-03 21:02:00
2 1952-09-20 00:00:00 Temperatura 17.4 del 19-09-1952 14:00, Mayor que la Máxima 17.0 20-09-1952 00:00 17.4 -- 17.0 2014-07-04 13:12:00
2 1952-09-24 00:00:00 Temperatura 16.8 del 23-09-1952 14:00, Mayor que la Máxima 16.0 24-09-1952 00:00 16.8 -- 16.0 2014-07-04 13:13:00
2 1952-10-02 00:00:00 Temperatura 16.1 del 01-10-1952 20:00, Mayor que la Máxima 16.0 02-10-1952 00:00 16.1 -- 16.0 2014-07-04 13:39:00
2 1952-10-13 00:00:00 Temperatura 17.1 del 12-10-1952 17:00, Mayor que la Máxima 17.0 13-10-1952 00:00 17.1 -- 17.0 2014-07-04 13:41:00
2 1954-01-02 00:00:00 Temperatura 21.8 del 01-01-1954 18:00, Mayor que la Máxima 21.2 02-01-1954 00:00 21.8 -- 21.2 2012-10-23 14:04:00
2 1954-01-02 00:00:00 Temperatura 21.8 del 01-01-1954 18:00, Mayor que la Máxima 21.2 02-01-1954 00:00 21.8 -- 21.2 2012-10-23 14:04:00
2 1954-01-19 00:00:00 Temperatura 21.4 del 18-01-1954 20:00, Mayor que la Máxima 20.8 19-01-1954 00:00 21.4 -- 20.8 2012-10-23 14:06:00
2 1954-01-20 00:00:00 Temperatura 22.6 del 19-01-1954 19:00, Mayor que la Máxima 21.8 20-01-1954 00:00 22.6 -- 21.8 2012-10-23 14:06:00
2 1954-01-24 00:00:00 Temperatura 22.0 del 23-01-1954 19:00, Mayor que la Máxima 21.5 24-01-1954 00:00 22.0 -- 21.5 2012-10-23 14:07:00
2 1954-01-26 00:00:00 Temperatura 24.5 del 25-01-1954 18:00, Mayor que la Máxima 24.0 26-01-1954 00:00 24.5 -- 24.0 2012-10-23 14:07:00
2 1954-01-27 00:00:00 Temperatura 24.4 del 26-01-1954 23:00, Mayor que la Máxima 24.3 27-01-1954 00:00 24.4 -- 24.3 2012-10-23 14:07:00
2 1954-02-17 00:00:00 Temperatura 25.0 del 16-02-1954 15:00, Mayor que la Máxima 24.5 17-02-1954 00:00 25.0 -- 24.5 2012-10-23 14:21:00
2 1954-03-08 00:00:00 Temperatura 23.8 del 07-03-1954 20:00, Mayor que la Máxima 22.5 08-03-1954 00:00 23.8 -- 22.5 2012-10-23 14:39:00
2 1954-04-27 00:00:00 Temperatura 18.0 del 26-04-1954 21:00, Mayor que la Máxima 17.0 27-04-1954 00:00 18.0 -- 17.0 2012-10-23 14:58:00
2 1954-05-03 00:00:00 Temperatura 16.8 del 02-05-1954 19:00, Mayor que la Máxima 14.8 03-05-1954 00:00 16.8 -- 14.8 2012-10-23 15:36:00
2 1954-05-08 00:00:00 Temperatura 17.0 del 07-05-1954 16:00, Mayor que la Máxima 16.7 08-05-1954 00:00 17.0 -- 16.7 2012-10-23 15:37:00
2 1954-06-13 00:00:00 Temperatura 17.0 del 12-06-1954 22:00, Mayor que la Máxima 15.0 13-06-1954 00:00 17.0 -- 15.0 2012-10-23 15:57:00
2 1954-07-01 00:00:00 Temperatura 13.6 del 30-06-1954 17:00, Mayor que la Máxima 13.0 01-07-1954 00:00 13.6 -- 13.0 2012-10-23 15:59:00
2 1954-07-05 00:00:00 Temperatura 14.6 del 04-07-1954 18:00, Mayor que la Máxima 14.5 05-07-1954 00:00 14.6 -- 14.5 2012-10-23 17:37:00
2 1954-07-07 00:00:00 Temperatura 15.8 del 06-07-1954 16:00, Mayor que la Máxima 15.5 07-07-1954 00:00 15.8 -- 15.5 2012-10-23 17:37:00
2 1954-07-28 00:00:00 Temperatura 13.0 del 27-07-1954 18:00, Mayor que la Máxima 12.5 28-07-1954 00:00 13.0 -- 12.5 2012-10-23 17:39:00
2 1954-07-29 00:00:00 Temperatura 13.2 del 28-07-1954 21:00, Mayor que la Máxima 13.0 29-07-1954 00:00 13.2 -- 13.0 2012-10-23 17:39:00
2 1954-08-05 00:00:00 Temperatura 14.0 del 04-08-1954 19:00, Mayor que la Máxima 12.9 05-08-1954 00:00 14.0 -- 12.9 2012-10-23 17:50:00
2 1954-08-12 00:00:00 Temperatura 15.0 del 11-08-1954 20:00, Mayor que la Máxima 14.5 12-08-1954 00:00 15.0 -- 14.5 2012-10-23 17:50:00
2 1954-08-19 00:00:00 Temperatura 13.6 del 18-08-1954 19:00, Mayor que la Máxima 13.5 19-08-1954 00:00 13.6 -- 13.5 2012-10-23 17:51:00
2 1954-08-29 00:00:00 Temperatura 18.4 del 28-08-1954 14:00, Mayor que la Máxima 14.8 29-08-1954 00:00 18.4 -- 14.8 2012-10-23 17:52:00
2 1954-09-05 00:00:00 Temperatura 14.6 del 04-09-1954 17:00, Mayor que la Máxima 14.5 05-09-1954 00:00 14.6 -- 14.5 2012-10-23 18:05:00
2 1954-09-06 00:00:00 Temperatura 14.4 del 05-09-1954 20:00, Mayor que la Máxima 12.5 06-09-1954 00:00 14.4 -- 12.5 2012-10-23 18:05:00
2 1954-09-16 00:00:00 Temperatura 15.6 del 15-09-1954 15:00, Mayor que la Máxima 15.5 16-09-1954 00:00 15.6 -- 15.5 2012-10-23 18:06:00
2 1954-09-30 00:00:00 Temperatura 16.8 del 29-09-1954 18:00, Mayor que la Máxima 16.5 30-09-1954 00:00 16.8 -- 16.5 2012-10-23 18:08:00
2 1954-10-20 00:00:00 Temperatura 15.6 del 19-10-1954 19:00, Mayor que la Máxima 15.5 20-10-1954 00:00 15.6 -- 15.5 2012-10-23 18:33:00
2 1954-10-25 00:00:00 Temperatura 16.9 del 24-10-1954 21:00, Mayor que la Máxima 16.5 25-10-1954 00:00 16.9 -- 16.5 2012-10-23 18:52:00
2 1954-11-10 00:00:00 Temperatura 19.4 del 09-11-1954 17:00, Mayor que la Máxima 18.5 10-11-1954 00:00 19.4 -- 18.5 2012-10-23 19:08:00
2 1954-12-04 00:00:00 Temperatura 20.0 del 03-12-1954 19:00, Mayor que la Máxima 19.0 04-12-1954 00:00 20.0 -- 19.0 2012-10-23 20:02:00
2 1954-12-14 00:00:00 Temperatura 21.4 del 13-12-1954 20:00, Mayor que la Máxima 21.0 14-12-1954 00:00 21.4 -- 21.0 2012-10-23 20:07:00
2 1961-04-10 00:00:00 Temperatura 18.4 del 09-04-1961 18:00, Mayor que la Máxima 18.2 10-04-1961 00:00 18.4 -- 18.2 2012-12-03 12:47:00
2 1961-07-20 00:00:00 Temperatura 11.4 del 19-07-1961 18:00, Mayor que la Máxima 11.0 20-07-1961 00:00 11.4 -- 11.0 2012-12-03 12:47:00
2 1961-07-23 00:00:00 Temperatura 12.8 del 22-07-1961 18:00, Mayor que la Máxima 12.6 23-07-1961 00:00 12.8 -- 12.6 2012-12-03 12:47:00
2 1961-08-15 00:00:00 Temperatura 14.0 del 14-08-1961 15:00, Mayor que la Máxima 13.8 15-08-1961 00:00 14.0 -- 13.8 2012-12-03 12:47:00
2 1961-08-30 00:00:00 Temperatura 17.0 del 29-08-1961 18:00, Mayor que la Máxima 16.8 30-08-1961 00:00 17.0 -- 16.8 2012-12-03 12:47:00
2 1961-09-08 00:00:00 Temperatura 14.8 del 07-09-1961 21:00, Mayor que la Máxima 14.4 08-09-1961 00:00 14.8 -- 14.4 2012-12-03 12:47:00
2 1961-09-20 00:00:00 Temperatura 14.0 del 19-09-1961 18:00, Mayor que la Máxima 13.5 20-09-1961 00:00 14.0 -- 13.5 2012-12-03 12:47:00
2 1961-10-10 00:00:00 Temperatura 17.0 del 09-10-1961 15:00, Mayor que la Máxima 16.8 10-10-1961 00:00 17.0 -- 16.8 2012-12-03 12:47:00
2 1962-02-24 00:00:00 Temperatura 21.1 del 23-02-1962 15:00, Mayor que la Máxima 21.0 24-02-1962 00:00 21.1 -- 21.0 2012-12-03 12:47:00
2 1962-03-08 00:00:00 Temperatura 21.2 del 07-03-1962 18:00, Mayor que la Máxima 21.0 08-03-1962 00:00 21.2 -- 21.0 2012-12-03 12:47:00
2 1962-04-09 00:00:00 Temperatura 19.5 del 08-04-1962 15:00, Mayor que la Máxima 19.4 09-04-1962 00:00 19.5 -- 19.4 2012-12-03 12:47:00
2 1962-04-14 00:00:00 Temperatura 20.3 del 13-04-1962 18:00, Mayor que la Máxima 20.0 14-04-1962 00:00 20.3 -- 20.0 2012-12-03 12:47:00
2 1962-05-12 00:00:00 Temperatura 19.0 del 11-05-1962 15:00, Mayor que la Máxima 17.6 12-05-1962 00:00 19.0 -- 17.6 2012-12-03 12:47:00
2 1962-05-28 00:00:00 Temperatura 15.2 del 27-05-1962 18:00, Mayor que la Máxima 14.6 28-05-1962 00:00 15.2 -- 14.6 2012-12-03 12:47:00
2 1962-07-13 00:00:00 Temperatura 14.0 del 12-07-1962 18:00, Mayor que la Máxima 13.4 13-07-1962 00:00 14.0 -- 13.4 2012-12-03 12:47:00
2 1962-07-28 00:00:00 Temperatura 15.0 del 27-07-1962 18:00, Mayor que la Máxima 14.9 28-07-1962 00:00 15.0 -- 14.9 2012-12-03 12:47:00
2 1962-08-16 00:00:00 Temperatura 14.2 del 15-08-1962 21:00, Mayor que la Máxima 14.0 16-08-1962 00:00 14.2 -- 14.0 2012-12-03 12:47:00
2 1962-10-08 00:00:00 Temperatura 16.2 del 07-10-1962 18:00, Mayor que la Máxima 16.0 08-10-1962 00:00 16.2 -- 16.0 2012-12-03 12:47:00
2 1962-10-14 00:00:00 Temperatura 17.0 del 13-10-1962 21:00, Mayor que la Máxima 16.2 14-10-1962 00:00 17.0 -- 16.2 2012-12-03 12:47:00
2 1962-10-16 00:00:00 Temperatura 16.6 del 15-10-1962 18:00, Mayor que la Máxima 16.5 16-10-1962 00:00 16.6 -- 16.5 2012-12-03 12:47:00
2 1962-11-18 00:00:00 Temperatura 20.4 del 17-11-1962 18:00, Mayor que la Máxima 20.0 18-11-1962 00:00 20.4 -- 20.0 2012-12-03 12:47:00
2 1963-03-08 00:00:00 Temperatura 23.0 del 07-03-1963 21:00, Mayor que la Máxima 14.3 08-03-1963 00:00 23.0 -- 14.3 2012-12-03 12:47:00
2 1963-04-10 00:00:00 Temperatura 22.4 del 09-04-1963 18:00, Mayor que la Máxima 18.8 10-04-1963 00:00 22.4 -- 18.8 2012-12-03 12:47:00
2 1963-04-22 00:00:00 Temperatura 22.2 del 21-04-1963 18:00, Mayor que la Máxima 22.0 22-04-1963 00:00 22.2 -- 22.0 2012-12-03 12:47:00
2 1963-06-25 00:00:00 Temperatura 16.3 del 24-06-1963 15:00, Mayor que la Máxima 16.0 25-06-1963 00:00 16.3 -- 16.0 2012-12-03 12:47:00
2 1963-07-03 00:00:00 Temperatura 22.6 del 02-07-1963 15:00, Mayor que la Máxima 16.5 03-07-1963 00:00 22.6 -- 16.5 2012-12-03 12:47:00
2 1963-07-04 00:00:00 Temperatura 18.5 del 03-07-1963 18:00, Mayor que la Máxima 17.8 04-07-1963 00:00 18.5 -- 17.8 2012-12-03 12:47:00
2 1963-07-24 00:00:00 Temperatura 15.2 del 23-07-1963 18:00, Mayor que la Máxima 15.0 24-07-1963 00:00 15.2 -- 15.0 2012-12-03 12:47:00
2 1963-08-20 00:00:00 Temperatura 15.3 del 19-08-1963 18:00, Mayor que la Máxima 15.2 20-08-1963 00:00 15.3 -- 15.2 2012-12-03 12:47:00
2 1963-09-05 00:00:00 Temperatura 16.2 del 04-09-1963 18:00, Mayor que la Máxima 16.0 05-09-1963 00:00 16.2 -- 16.0 2012-12-03 12:47:00
2 1963-09-21 00:00:00 Temperatura 16.4 del 20-09-1963 18:00, Mayor que la Máxima 15.8 21-09-1963 00:00 16.4 -- 15.8 2012-12-03 12:47:00
2 1963-12-15 00:00:00 Temperatura 20.5 del 14-12-1963 18:00, Mayor que la Máxima 20.4 15-12-1963 00:00 20.5 -- 20.4 2012-12-03 12:47:00
2 1963-12-30 00:00:00 Temperatura 21.4 del 29-12-1963 18:00, Mayor que la Máxima 21.0 30-12-1963 00:00 21.4 -- 21.0 2012-12-03 12:47:00
2 1964-03-08 00:00:00 Temperatura 23.0 del 07-03-1964 15:00, Mayor que la Máxima 22.0 08-03-1964 00:00 23.0 -- 22.0 2012-12-03 12:47:00
2 1964-04-04 00:00:00 Temperatura 20.0 del 03-04-1964 18:00, Mayor que la Máxima 19.7 04-04-1964 00:00 20.0 -- 19.7 2012-12-03 12:47:00
2 1964-04-12 00:00:00 Temperatura 18.8 del 11-04-1964 18:00, Mayor que la Máxima 18.6 12-04-1964 00:00 18.8 -- 18.6 2012-12-03 12:47:00
2 1964-04-30 00:00:00 Temperatura 16.4 del 29-04-1964 18:00, Mayor que la Máxima 15.8 30-04-1964 00:00 16.4 -- 15.8 2012-12-03 12:48:00
2 1964-05-10 00:00:00 Temperatura 20.2 del 09-05-1964 18:00, Mayor que la Máxima 20.0 10-05-1964 00:00 20.2 -- 20.0 2012-12-03 12:48:00
2 1964-07-08 00:00:00 Temperatura 15.4 del 07-07-1964 21:00, Mayor que la Máxima 14.6 08-07-1964 00:00 15.4 -- 14.6 2012-12-03 12:48:00
2 1965-01-09 00:00:00 Temperatura 22.0 del 08-01-1965 21:00, Mayor que la Máxima 20.0 09-01-1965 00:00 22.0 -- 20.0 2012-12-03 12:48:00
2 1965-04-06 00:00:00 Temperatura 19.0 del 05-04-1965 18:00, Mayor que la Máxima 18.9 06-04-1965 00:00 19.0 -- 18.9 2012-12-03 12:48:00
2 1965-04-16 00:00:00 Temperatura 19.0 del 15-04-1965 18:00, Mayor que la Máxima 18.4 16-04-1965 00:00 19.0 -- 18.4 2012-12-03 12:48:00
2 1965-04-21 00:00:00 Temperatura 18.5 del 20-04-1965 18:00, Mayor que la Máxima 18.4 21-04-1965 00:00 18.5 -- 18.4 2012-12-03 12:48:00
2 1965-04-28 00:00:00 Temperatura 20.3 del 27-04-1965 18:00, Mayor que la Máxima 20.2 28-04-1965 00:00 20.3 -- 20.2 2012-12-03 12:48:00
2 1965-05-26 00:00:00 Temperatura 16.2 del 25-05-1965 21:00, Mayor que la Máxima 15.5 26-05-1965 00:00 16.2 -- 15.5 2012-12-03 12:48:00
2 1965-06-15 00:00:00 Temperatura 15.8 del 14-06-1965 18:00, Mayor que la Máxima 15.5 15-06-1965 00:00 15.8 -- 15.5 2012-12-03 12:48:00
2 1965-06-30 00:00:00 Temperatura 15.4 del 29-06-1965 18:00, Mayor que la Máxima 14.6 30-06-1965 00:00 15.4 -- 14.6 2012-12-03 12:48:00
2 1965-07-02 00:00:00 Temperatura 15.0 del 01-07-1965 15:00, Mayor que la Máxima 12.4 02-07-1965 00:00 15.0 -- 12.4 2012-12-03 12:48:00
2 1965-07-19 00:00:00 Temperatura 20.5 del 18-07-1965 15:00, Mayor que la Máxima 16.4 19-07-1965 00:00 20.5 -- 16.4 2012-12-03 12:48:00
2 1965-08-01 00:00:00 Temperatura 14.8 del 31-07-1965 18:00, Mayor que la Máxima 14.7 01-08-1965 00:00 14.8 -- 14.7 2012-12-03 12:48:00
2 1965-12-24 00:00:00 Temperatura 22.5 del 23-12-1965 18:00, Mayor que la Máxima 20.4 24-12-1965 00:00 22.5 -- 20.4 2012-12-03 12:48:00
2 1966-01-18 00:00:00 Temperatura 22.5 del 17-01-1966 18:00, Mayor que la Máxima 22.3 18-01-1966 00:00 22.5 -- 22.3 2012-12-03 12:48:00
2 1966-01-31 00:00:00 Temperatura 22.6 del 30-01-1966 18:00, Mayor que la Máxima 22.5 31-01-1966 00:00 22.6 -- 22.5 2012-12-03 12:48:00
2 1966-02-20 00:00:00 Temperatura 20.1 del 19-02-1966 18:00, Mayor que la Máxima 19.8 20-02-1966 00:00 20.1 -- 19.8 2012-12-03 12:48:00
2 1966-02-26 00:00:00 Temperatura 20.6 del 25-02-1966 21:00, Mayor que la Máxima 20.4 26-02-1966 00:00 20.6 -- 20.4 2012-12-03 12:48:00
2 1966-03-16 00:00:00 Temperatura 21.6 del 15-03-1966 18:00, Mayor que la Máxima 21.0 16-03-1966 00:00 21.6 -- 21.0 2012-12-03 12:48:00
2 1966-03-29 00:00:00 Temperatura 19.6 del 28-03-1966 21:00, Mayor que la Máxima 19.0 29-03-1966 00:00 19.6 -- 19.0 2012-12-03 12:48:00
2 1966-04-01 00:00:00 Temperatura 19.4 del 31-03-1966 18:00, Mayor que la Máxima 19.3 01-04-1966 00:00 19.4 -- 19.3 2012-12-03 12:48:00
2 1966-04-21 00:00:00 Temperatura 27.2 del 20-04-1966 15:00, Mayor que la Máxima 24.7 21-04-1966 00:00 27.2 -- 24.7 2012-12-03 12:48:00
2 1966-05-23 00:00:00 Temperatura 19.9 del 22-05-1966 15:00, Mayor que la Máxima 15.7 23-05-1966 00:00 19.9 -- 15.7 2012-12-03 12:48:00
2 1966-05-27 00:00:00 Temperatura 16.0 del 26-05-1966 18:00, Mayor que la Máxima 15.8 27-05-1966 00:00 16.0 -- 15.8 2012-12-03 12:48:00
2 1966-10-01 00:00:00 Temperatura 14.4 del 30-09-1966 15:00, Mayor que la Máxima 13.4 01-10-1966 00:00 14.4 -- 13.4 2012-12-03 12:48:00
2 1966-10-21 00:00:00 Temperatura 19.0 del 20-10-1966 18:00, Mayor que la Máxima 18.4 21-10-1966 00:00 19.0 -- 18.4 2012-12-03 12:48:00
2 1966-12-15 00:00:00 Temperatura 20.0 del 14-12-1966 18:00, Mayor que la Máxima 19.6 15-12-1966 00:00 20.0 -- 19.6 2012-12-03 12:48:00
2 1967-02-06 00:00:00 Temperatura 23.0 del 05-02-1967 15:00, Mayor que la Máxima 22.7 06-02-1967 00:00 23.0 -- 22.7 2012-12-03 12:48:00
2 1967-02-21 00:00:00 Temperatura 21.0 del 20-02-1967 18:00, Mayor que la Máxima 20.4 21-02-1967 00:00 21.0 -- 20.4 2012-12-03 12:48:00
2 1967-04-09 00:00:00 Temperatura 21.2 del 08-04-1967 18:00, Mayor que la Máxima 21.0 09-04-1967 00:00 21.2 -- 21.0 2012-12-03 12:49:00
2 1967-04-12 00:00:00 Temperatura 24.2 del 11-04-1967 18:00, Mayor que la Máxima 23.8 12-04-1967 00:00 24.2 -- 23.8 2012-12-03 12:49:00
2 1967-04-13 00:00:00 Temperatura 24.2 del 12-04-1967 18:00, Mayor que la Máxima 24.0 13-04-1967 00:00 24.2 -- 24.0 2012-12-03 12:49:00
2 1967-05-17 00:00:00 Temperatura 18.8 del 16-05-1967 18:00, Mayor que la Máxima 18.0 17-05-1967 00:00 18.8 -- 18.0 2012-12-03 12:49:00
2 1967-07-23 00:00:00 Temperatura 16.0 del 22-07-1967 18:00, Mayor que la Máxima 14.2 23-07-1967 00:00 16.0 -- 14.2 2012-12-03 12:49:00
2 1967-08-05 00:00:00 Temperatura 14.0 del 04-08-1967 18:00, Mayor que la Máxima 13.8 05-08-1967 00:00 14.0 -- 13.8 2012-12-03 12:49:00
2 1967-08-13 00:00:00 Temperatura 14.0 del 12-08-1967 18:00, Mayor que la Máxima 13.8 13-08-1967 00:00 14.0 -- 13.8 2012-12-03 12:49:00
2 1967-08-25 00:00:00 Temperatura 12.0 del 24-08-1967 15:00, Mayor que la Máxima 11.8 25-08-1967 00:00 12.0 -- 11.8 2012-12-03 12:49:00
2 1967-08-30 00:00:00 Temperatura 14.0 del 29-08-1967 18:00, Mayor que la Máxima 13.7 30-08-1967 00:00 14.0 -- 13.7 2012-12-03 12:49:00
2 1967-09-24 00:00:00 Temperatura 14.0 del 23-09-1967 15:00, Mayor que la Máxima 13.8 24-09-1967 00:00 14.0 -- 13.8 2012-12-03 12:49:00
2 1967-10-13 00:00:00 Temperatura 15.0 del 12-10-1967 18:00, Mayor que la Máxima 14.6 13-10-1967 00:00 15.0 -- 14.6 2012-12-03 12:49:00
2 1967-10-19 00:00:00 Temperatura 15.0 del 18-10-1967 18:00, Mayor que la Máxima 14.8 19-10-1967 00:00 15.0 -- 14.8 2012-12-03 12:49:00
2 1967-11-06 00:00:00 Temperatura 16.0 del 05-11-1967 18:00, Mayor que la Máxima 15.1 06-11-1967 00:00 16.0 -- 15.1 2012-12-03 12:49:00
2 1967-11-18 00:00:00 Temperatura 18.0 del 17-11-1967 18:00, Mayor que la Máxima 17.6 18-11-1967 00:00 18.0 -- 17.6 2012-12-03 12:49:00
2 1967-12-21 00:00:00 Temperatura 22.0 del 20-12-1967 18:00, Mayor que la Máxima 21.7 21-12-1967 00:00 22.0 -- 21.7 2012-12-03 12:49:00
2 1968-01-27 00:00:00 Temperatura 23.6 del 26-01-1968 21:00, Mayor que la Máxima 23.1 27-01-1968 00:00 23.6 -- 23.1 2012-12-03 12:49:00
2 1968-01-28 00:00:00 Temperatura 25.0 del 27-01-1968 15:00, Mayor que la Máxima 24.5 28-01-1968 00:00 25.0 -- 24.5 2012-12-03 12:49:00
2 1968-02-05 00:00:00 Temperatura 22.2 del 04-02-1968 18:00, Mayor que la Máxima 22.0 05-02-1968 00:00 22.2 -- 22.0 2012-12-03 12:49:00
2 1968-02-19 00:00:00 Temperatura 22.8 del 18-02-1968 18:00, Mayor que la Máxima 22.0 19-02-1968 00:00 22.8 -- 22.0 2012-12-03 12:49:00
2 1968-02-21 00:00:00 Temperatura 23.0 del 20-02-1968 18:00, Mayor que la Máxima 22.8 21-02-1968 00:00 23.0 -- 22.8 2012-12-03 12:49:00
2 1968-04-04 00:00:00 Temperatura 21.6 del 03-04-1968 18:00, Mayor que la Máxima 20.8 04-04-1968 00:00 21.6 -- 20.8 2012-12-03 12:49:00
2 1968-04-14 00:00:00 Temperatura 29.2 del 13-04-1968 15:00, Mayor que la Máxima 29.0 14-04-1968 00:00 29.2 -- 29.0 2012-12-03 12:49:00
2 1968-10-14 00:00:00 Temperatura 16.0 del 13-10-1968 18:00, Mayor que la Máxima 15.7 14-10-1968 00:00 16.0 -- 15.7 2012-12-03 12:49:00
2 1968-11-08 00:00:00 Temperatura 31.6 del 07-11-1968 15:00, Mayor que la Máxima 19.0 08-11-1968 00:00 31.6 -- 19.0 2012-12-03 12:49:00
2 1968-11-14 00:00:00 Temperatura 18.0 del 13-11-1968 18:00, Mayor que la Máxima 16.7 14-11-1968 00:00 18.0 -- 16.7 2012-12-03 12:49:00
2 1952-01-19 12:00:00 Temperatura 10.6 del 19-01-1952 08:00, Menor que la Mínima 18.0 19-01-1952 12:00 10.6 -- 18.0 2014-06-11 20:35:00
2 1952-02-16 12:00:00 Temperatura 17.2 del 16-02-1952 06:00, Menor que la Mínima 17.4 16-02-1952 12:00 17.2 -- 17.4 2014-06-13 13:43:00
2 1952-02-24 12:00:00 Temperatura 16.5 del 24-02-1952 07:00, Menor que la Mínima 18.0 24-02-1952 12:00 16.5 -- 18.0 2014-06-13 15:34:00
2 1952-03-10 12:00:00 Temperatura 14.4 del 10-03-1952 07:00, Menor que la Mínima 15.0 10-03-1952 12:00 14.4 -- 15.0 2014-06-13 19:16:00
2 1952-03-21 12:00:00 Temperatura 14.4 del 21-03-1952 07:00, Menor que la Mínima 17.0 21-03-1952 12:00 14.4 -- 17.0 2014-06-16 14:12:00
2 1952-03-28 12:00:00 Temperatura 15.6 del 28-03-1952 06:00, Menor que la Mínima 16.0 28-03-1952 12:00 15.6 -- 16.0 2014-06-16 15:53:00
2 1952-04-15 12:00:00 Temperatura 9.2 del 15-04-1952 08:00, Menor que la Mínima 10.0 15-04-1952 12:00 9.2 -- 10.0 2014-06-17 13:30:00
2 1952-05-16 12:00:00 Temperatura 9.8 del 16-05-1952 08:00, Menor que la Mínima 10.6 16-05-1952 12:00 9.8 -- 10.6 2014-06-17 21:26:00
2 1952-08-12 12:00:00 Temperatura 7.7 del 12-08-1952 06:00, Menor que la Mínima 8.0 12-08-1952 12:00 7.7 -- 8.0 2014-06-25 15:08:00
2 1952-08-19 12:00:00 Temperatura 9.0 del 19-08-1952 10:00, Menor que la Mínima 10.0 19-08-1952 12:00 9.0 -- 10.0 2014-06-25 16:50:00
2 1952-08-27 12:00:00 Temperatura 8.6 del 27-08-1952 07:00, Menor que la Mínima 10.0 27-08-1952 12:00 8.6 -- 10.0 2014-06-26 13:27:00
2 1952-09-01 12:00:00 Temperatura 10.0 del 01-09-1952 06:00, Menor que la Mínima 10.5 01-09-1952 12:00 10.0 -- 10.5 2014-06-26 15:27:00
2 1952-09-08 12:00:00 Temperatura 5.5 del 08-09-1952 08:00, Menor que la Mínima 9.0 08-09-1952 12:00 5.5 -- 9.0 2014-06-26 18:46:00
2 1952-09-09 12:00:00 Temperatura 9.0 del 09-09-1952 06:00, Menor que la Mínima 11.8 09-09-1952 12:00 9.0 -- 11.8 2014-06-26 19:00:00
2 1952-10-16 12:00:00 Temperatura 9.2 del 16-10-1952 11:00, Menor que la Mínima 9.5 16-10-1952 12:00 9.2 -- 9.5 2014-06-30 19:30:00
2 1952-11-13 12:00:00 Temperatura 9.6 del 13-11-1952 10:00, Menor que la Mínima 10.6 13-11-1952 12:00 9.6 -- 10.6 2014-07-01 18:58:00
2 1952-11-18 12:00:00 Temperatura 12.0 del 18-11-1952 10:00, Menor que la Mínima 12.1 18-11-1952 12:00 12.0 -- 12.1 2014-07-01 20:20:00
2 1952-11-30 12:00:00 Temperatura 10.8 del 30-11-1952 10:00, Menor que la Mínima 11.0 30-11-1952 12:00 10.8 -- 11.0 2014-07-02 14:06:00
2 1954-05-02 12:00:00 Temperatura 7.6 del 02-05-1954 10:00, Menor que la Mínima 9.2 02-05-1954 12:00 7.6 -- 9.2 2012-10-16 17:46:00
2 1954-06-12 12:00:00 Temperatura 8.0 del 12-06-1954 08:00, Menor que la Mínima 9.0 12-06-1954 12:00 8.0 -- 9.0 2012-10-19 19:08:00
2 1954-11-20 12:00:00 Temperatura 10.6 del 20-11-1954 12:00, Menor que la Mínima 12.6 20-11-1954 12:00 10.6 -- 12.6 2012-11-09 14:17:00
2 1960-01-07 12:00:00 Temperatura 12.2 del 07-01-1960 06:00, Menor que la Mínima 12.4 07-01-1960 12:00 12.2 -- 12.4 2012-12-03 12:50:00
2 1960-04-01 12:00:00 Temperatura 14.0 del 01-04-1960 09:00, Menor que la Mínima 22.5 01-04-1960 12:00 14.0 -- 22.5 2012-12-03 12:51:00
2 1960-09-29 12:00:00 Temperatura 8.6 del 29-09-1960 09:00, Menor que la Mínima 8.8 29-09-1960 12:00 8.6 -- 8.8 2012-12-03 12:51:00
2 1960-11-22 12:00:00 Temperatura 10.6 del 22-11-1960 09:00, Menor que la Mínima 11.4 22-11-1960 12:00 10.6 -- 11.4 2012-12-03 12:51:00
2 1961-01-23 12:00:00 Temperatura 16.2 del 23-01-1961 09:00, Menor que la Mínima 16.4 23-01-1961 12:00 16.2 -- 16.4 2012-12-03 12:51:00
2 1961-06-15 12:00:00 Temperatura 6.0 del 15-06-1961 12:00, Menor que la Mínima 6.2 15-06-1961 12:00 6.0 -- 6.2 2012-12-03 12:51:00
2 1961-08-10 12:00:00 Temperatura 9.4 del 10-08-1961 06:00, Menor que la Mínima 9.5 10-08-1961 12:00 9.4 -- 9.5 2012-12-03 12:51:00
2 1961-09-01 12:00:00 Temperatura 8.4 del 01-09-1961 09:00, Menor que la Mínima 8.5 01-09-1961 12:00 8.4 -- 8.5 2012-12-03 12:51:00
2 1961-10-07 12:00:00 Temperatura 10.2 del 07-10-1961 06:00, Menor que la Mínima 11.2 07-10-1961 12:00 10.2 -- 11.2 2012-12-03 12:51:00
2 1961-11-04 12:00:00 Temperatura 11.0 del 04-11-1961 06:00, Menor que la Mínima 12.3 04-11-1961 12:00 11.0 -- 12.3 2012-12-03 12:51:00
2 1962-06-14 12:00:00 Temperatura 6.2 del 14-06-1962 09:00, Menor que la Mínima 6.6 14-06-1962 12:00 6.2 -- 6.6 2012-12-03 12:51:00
2 1962-06-29 12:00:00 Temperatura 8.8 del 29-06-1962 12:00, Menor que la Mínima 10.0 29-06-1962 12:00 8.8 -- 10.0 2012-12-03 12:51:00
2 1962-11-07 12:00:00 Temperatura 8.2 del 07-11-1962 09:00, Menor que la Mínima 9.8 07-11-1962 12:00 8.2 -- 9.8 2012-12-03 12:51:00
2 1963-05-04 12:00:00 Temperatura 12.0 del 04-05-1963 06:00, Menor que la Mínima 12.4 04-05-1963 12:00 12.0 -- 12.4 2012-12-03 12:52:00
2 1963-05-30 12:00:00 Temperatura 10.0 del 30-05-1963 06:00, Menor que la Mínima 10.9 30-05-1963 12:00 10.0 -- 10.9 2012-12-03 12:52:00
2 1963-06-07 12:00:00 Temperatura 7.6 del 07-06-1963 12:00, Menor que la Mínima 7.8 07-06-1963 12:00 7.6 -- 7.8 2012-12-03 12:52:00
2 1963-10-12 12:00:00 Temperatura 12.0 del 12-10-1963 06:00, Menor que la Mínima 12.4 12-10-1963 12:00 12.0 -- 12.4 2012-12-03 12:52:00
2 1963-12-04 12:00:00 Temperatura 10.2 del 04-12-1963 12:00, Menor que la Mínima 12.0 04-12-1963 12:00 10.2 -- 12.0 2012-12-03 12:52:00
2 1963-12-26 12:00:00 Temperatura 11.6 del 26-12-1963 09:00, Menor que la Mínima 12.0 26-12-1963 12:00 11.6 -- 12.0 2012-12-03 12:52:00
2 1964-02-23 12:00:00 Temperatura 12.0 del 23-02-1964 09:00, Menor que la Mínima 12.5 23-02-1964 12:00 12.0 -- 12.5 2012-12-03 12:52:00
2 1964-03-01 12:00:00 Temperatura 11.7 del 01-03-1964 06:00, Menor que la Mínima 12.0 01-03-1964 12:00 11.7 -- 12.0 2012-12-03 12:52:00
2 1964-03-24 12:00:00 Temperatura 12.0 del 24-03-1964 09:00, Menor que la Mínima 13.0 24-03-1964 12:00 12.0 -- 13.0 2012-12-03 12:52:00
2 1964-04-25 12:00:00 Temperatura 9.4 del 25-04-1964 06:00, Menor que la Mínima 9.7 25-04-1964 12:00 9.4 -- 9.7 2012-12-03 12:52:00
2 1964-04-29 12:00:00 Temperatura 7.3 del 29-04-1964 09:00, Menor que la Mínima 7.6 29-04-1964 12:00 7.3 -- 7.6 2012-12-03 12:52:00
2 1964-08-06 12:00:00 Temperatura 6.4 del 06-08-1964 06:00, Menor que la Mínima 8.2 06-08-1964 12:00 6.4 -- 8.2 2012-12-03 12:52:00
2 1964-08-18 12:00:00 Temperatura 7.3 del 18-08-1964 06:00, Menor que la Mínima 9.0 18-08-1964 12:00 7.3 -- 9.0 2012-12-03 12:52:00
2 1964-08-20 12:00:00 Temperatura 7.6 del 20-08-1964 06:00, Menor que la Mínima 8.4 20-08-1964 12:00 7.6 -- 8.4 2012-12-03 12:52:00
2 1964-08-31 12:00:00 Temperatura 6.8 del 31-08-1964 06:00, Menor que la Mínima 6.9 31-08-1964 12:00 6.8 -- 6.9 2012-12-03 12:52:00
2 1964-10-04 12:00:00 Temperatura 8.0 del 04-10-1964 09:00, Menor que la Mínima 8.7 04-10-1964 12:00 8.0 -- 8.7 2012-12-03 12:52:00
2 1964-12-02 12:00:00 Temperatura 11.2 del 02-12-1964 09:00, Menor que la Mínima 11.4 02-12-1964 12:00 11.2 -- 11.4 2012-12-03 12:52:00
2 1964-12-11 12:00:00 Temperatura 10.8 del 11-12-1964 06:00, Menor que la Mínima 11.4 11-12-1964 12:00 10.8 -- 11.4 2012-12-03 12:52:00
2 1965-01-31 12:00:00 Temperatura 13.0 del 31-01-1965 09:00, Menor que la Mínima 13.6 31-01-1965 12:00 13.0 -- 13.6 2012-12-03 12:52:00
2 1965-02-09 12:00:00 Temperatura 1.8 del 09-02-1965 09:00, Menor que la Mínima 17.4 09-02-1965 12:00 1.8 -- 17.4 2012-12-03 12:52:00
2 1965-03-05 12:00:00 Temperatura 16.0 del 05-03-1965 09:00, Menor que la Mínima 17.4 05-03-1965 12:00 16.0 -- 17.4 2012-12-03 12:52:00
2 1965-03-06 12:00:00 Temperatura 15.4 del 06-03-1965 09:00, Menor que la Mínima 15.7 06-03-1965 12:00 15.4 -- 15.7 2012-12-03 12:52:00
2 1965-03-25 12:00:00 Temperatura 15.4 del 25-03-1965 09:00, Menor que la Mínima 15.5 25-03-1965 12:00 15.4 -- 15.5 2012-12-03 12:52:00
2 1965-03-27 12:00:00 Temperatura 11.0 del 27-03-1965 06:00, Menor que la Mínima 12.6 27-03-1965 12:00 11.0 -- 12.6 2012-12-03 12:52:00
2 1965-04-01 12:00:00 Temperatura 10.0 del 01-04-1965 09:00, Menor que la Mínima 12.4 01-04-1965 12:00 10.0 -- 12.4 2012-12-03 12:52:00
2 1965-04-11 12:00:00 Temperatura 10.4 del 11-04-1965 06:00, Menor que la Mínima 11.5 11-04-1965 12:00 10.4 -- 11.5 2012-12-03 12:52:00
2 1965-04-16 12:00:00 Temperatura 9.0 del 16-04-1965 09:00, Menor que la Mínima 9.4 16-04-1965 12:00 9.0 -- 9.4 2012-12-03 12:52:00
2 1965-04-17 12:00:00 Temperatura 9.0 del 17-04-1965 06:00, Menor que la Mínima 11.6 17-04-1965 12:00 9.0 -- 11.6 2012-12-03 12:52:00
2 1965-04-26 12:00:00 Temperatura 9.2 del 26-04-1965 09:00, Menor que la Mínima 11.0 26-04-1965 12:00 9.2 -- 11.0 2012-12-03 12:52:00
2 1965-05-08 12:00:00 Temperatura 11.0 del 08-05-1965 09:00, Menor que la Mínima 13.4 08-05-1965 12:00 11.0 -- 13.4 2012-12-03 12:52:00
2 1965-05-11 12:00:00 Temperatura 10.2 del 11-05-1965 06:00, Menor que la Mínima 10.5 11-05-1965 12:00 10.2 -- 10.5 2012-12-03 12:52:00
2 1965-05-18 12:00:00 Temperatura 9.2 del 18-05-1965 12:00, Menor que la Mínima 10.2 18-05-1965 12:00 9.2 -- 10.2 2012-12-03 12:52:00
2 1965-05-26 12:00:00 Temperatura 9.0 del 26-05-1965 12:00, Menor que la Mínima 9.5 26-05-1965 12:00 9.0 -- 9.5 2012-12-03 12:52:00
2 1965-06-07 12:00:00 Temperatura 12.0 del 07-06-1965 09:00, Menor que la Mínima 12.4 07-06-1965 12:00 12.0 -- 12.4 2012-12-03 12:52:00
2 1965-07-19 12:00:00 Temperatura 6.6 del 19-07-1965 12:00, Menor que la Mínima 6.7 19-07-1965 12:00 6.6 -- 6.7 2012-12-03 12:52:00
2 1965-08-04 12:00:00 Temperatura 8.4 del 04-08-1965 12:00, Menor que la Mínima 8.7 04-08-1965 12:00 8.4 -- 8.7 2012-12-03 12:52:00
2 1965-08-14 12:00:00 Temperatura 8.0 del 14-08-1965 09:00, Menor que la Mínima 8.6 14-08-1965 12:00 8.0 -- 8.6 2012-12-03 12:52:00
2 1965-08-19 12:00:00 Temperatura 9.6 del 19-08-1965 09:00, Menor que la Mínima 10.2 19-08-1965 12:00 9.6 -- 10.2 2012-12-03 12:52:00
2 1965-09-03 12:00:00 Temperatura 9.2 del 03-09-1965 09:00, Menor que la Mínima 10.4 03-09-1965 12:00 9.2 -- 10.4 2012-12-03 12:52:00
2 1965-09-15 12:00:00 Temperatura 9.0 del 15-09-1965 09:00, Menor que la Mínima 9.4 15-09-1965 12:00 9.0 -- 9.4 2012-12-03 12:52:00
2 1965-09-20 12:00:00 Temperatura 10.0 del 20-09-1965 09:00, Menor que la Mínima 10.2 20-09-1965 12:00 10.0 -- 10.2 2012-12-03 12:52:00
2 1965-10-14 12:00:00 Temperatura 2.2 del 14-10-1965 12:00, Menor que la Mínima 11.2 14-10-1965 12:00 2.2 -- 11.2 2012-12-03 12:52:00
2 1965-11-15 12:00:00 Temperatura 2.0 del 15-11-1965 09:00, Menor que la Mínima 9.4 15-11-1965 12:00 2.0 -- 9.4 2012-12-03 12:52:00
2 1965-11-24 12:00:00 Temperatura 9.5 del 24-11-1965 09:00, Menor que la Mínima 11.0 24-11-1965 12:00 9.5 -- 11.0 2012-12-03 12:52:00
2 1965-11-25 12:00:00 Temperatura 10.2 del 25-11-1965 12:00, Menor que la Mínima 12.0 25-11-1965 12:00 10.2 -- 12.0 2012-12-03 12:52:00
2 1965-12-12 12:00:00 Temperatura 1.4 del 12-12-1965 09:00, Menor que la Mínima 13.4 12-12-1965 12:00 1.4 -- 13.4 2012-12-03 12:52:00
2 1965-12-25 12:00:00 Temperatura 13.4 del 25-12-1965 09:00, Menor que la Mínima 14.5 25-12-1965 12:00 13.4 -- 14.5 2012-12-03 12:52:00
2 1965-12-29 12:00:00 Temperatura 14.0 del 29-12-1965 09:00, Menor que la Mínima 14.2 29-12-1965 12:00 14.0 -- 14.2 2012-12-03 12:52:00
2 1966-01-10 12:00:00 Temperatura 13.8 del 10-01-1966 09:00, Menor que la Mínima 14.7 10-01-1966 12:00 13.8 -- 14.7 2012-12-03 12:52:00
2 1966-01-23 12:00:00 Temperatura 14.0 del 23-01-1966 09:00, Menor que la Mínima 14.2 23-01-1966 12:00 14.0 -- 14.2 2012-12-03 12:52:00
2 1966-02-13 12:00:00 Temperatura 14.4 del 13-02-1966 09:00, Menor que la Mínima 15.8 13-02-1966 12:00 14.4 -- 15.8 2012-12-03 12:52:00
2 1966-02-20 12:00:00 Temperatura 13.2 del 20-02-1966 09:00, Menor que la Mínima 14.7 20-02-1966 12:00 13.2 -- 14.7 2012-12-03 12:52:00
2 1966-03-03 12:00:00 Temperatura 15.0 del 03-03-1966 09:00, Menor que la Mínima 15.9 03-03-1966 12:00 15.0 -- 15.9 2012-12-03 12:52:00
2 1966-03-21 12:00:00 Temperatura 15.0 del 21-03-1966 09:00, Menor que la Mínima 15.4 21-03-1966 12:00 15.0 -- 15.4 2012-12-03 12:52:00
2 1966-05-11 12:00:00 Temperatura 10.6 del 11-05-1966 09:00, Menor que la Mínima 13.0 11-05-1966 12:00 10.6 -- 13.0 2012-12-03 12:53:00
2 1966-07-21 12:00:00 Temperatura 7.8 del 21-07-1966 12:00, Menor que la Mínima 8.0 21-07-1966 12:00 7.8 -- 8.0 2012-12-03 12:53:00
2 1966-08-18 12:00:00 Temperatura 7.6 del 18-08-1966 09:00, Menor que la Mínima 8.3 18-08-1966 12:00 7.6 -- 8.3 2012-12-03 12:53:00
2 1966-09-06 12:00:00 Temperatura 7.2 del 06-09-1966 09:00, Menor que la Mínima 8.8 06-09-1966 12:00 7.2 -- 8.8 2012-12-03 12:53:00
2 1966-10-07 12:00:00 Temperatura 9.0 del 07-10-1966 09:00, Menor que la Mínima 10.0 07-10-1966 12:00 9.0 -- 10.0 2012-12-03 12:53:00
2 1966-10-12 12:00:00 Temperatura 9.0 del 12-10-1966 09:00, Menor que la Mínima 9.2 12-10-1966 12:00 9.0 -- 9.2 2012-12-03 12:53:00
2 1966-10-18 12:00:00 Temperatura 10.0 del 18-10-1966 09:00, Menor que la Mínima 10.1 18-10-1966 12:00 10.0 -- 10.1 2012-12-03 12:53:00
2 1966-11-06 12:00:00 Temperatura 10.0 del 06-11-1966 09:00, Menor que la Mínima 11.6 06-11-1966 12:00 10.0 -- 11.6 2012-12-03 12:53:00
2 1966-11-20 12:00:00 Temperatura 11.0 del 20-11-1966 09:00, Menor que la Mínima 12.6 20-11-1966 12:00 11.0 -- 12.6 2012-12-03 12:53:00
2 1966-12-17 12:00:00 Temperatura 13.2 del 17-12-1966 09:00, Menor que la Mínima 13.4 17-12-1966 12:00 13.2 -- 13.4 2012-12-03 12:53:00
2 1967-02-18 12:00:00 Temperatura 12.3 del 18-02-1967 09:00, Menor que la Mínima 14.0 18-02-1967 12:00 12.3 -- 14.0 2012-12-03 12:53:00
2 1967-04-17 12:00:00 Temperatura 12.4 del 17-04-1967 12:00, Menor que la Mínima 13.3 17-04-1967 12:00 12.4 -- 13.3 2012-12-03 12:53:00
2 1967-04-26 12:00:00 Temperatura 10.0 del 26-04-1967 09:00, Menor que la Mínima 10.3 26-04-1967 12:00 10.0 -- 10.3 2012-12-03 12:53:00
2 1967-06-29 12:00:00 Temperatura 8.4 del 29-06-1967 09:00, Menor que la Mínima 8.5 29-06-1967 12:00 8.4 -- 8.5 2012-12-03 12:53:00
2 1967-07-05 12:00:00 Temperatura 9.0 del 05-07-1967 12:00, Menor que la Mínima 9.4 05-07-1967 12:00 9.0 -- 9.4 2012-12-03 12:53:00
2 1967-07-26 12:00:00 Temperatura 8.0 del 26-07-1967 12:00, Menor que la Mínima 8.2 26-07-1967 12:00 8.0 -- 8.2 2012-12-03 12:53:00
2 1967-08-18 12:00:00 Temperatura 7.0 del 18-08-1967 12:00, Menor que la Mínima 7.2 18-08-1967 12:00 7.0 -- 7.2 2012-12-03 12:53:00
2 1967-08-22 12:00:00 Temperatura 8.0 del 22-08-1967 09:00, Menor que la Mínima 8.2 22-08-1967 12:00 8.0 -- 8.2 2012-12-03 12:53:00
2 1967-08-30 12:00:00 Temperatura 8.0 del 30-08-1967 12:00, Menor que la Mínima 8.2 30-08-1967 12:00 8.0 -- 8.2 2012-12-03 12:53:00
2 1967-09-06 12:00:00 Temperatura 9.0 del 06-09-1967 09:00, Menor que la Mínima 9.2 06-09-1967 12:00 9.0 -- 9.2 2012-12-03 12:53:00
2 1967-09-24 12:00:00 Temperatura 10.0 del 24-09-1967 06:00, Menor que la Mínima 10.1 24-09-1967 12:00 10.0 -- 10.1 2012-12-03 12:53:00
2 1967-10-10 12:00:00 Temperatura 9.0 del 10-10-1967 09:00, Menor que la Mínima 10.1 10-10-1967 12:00 9.0 -- 10.1 2012-12-03 12:53:00
2 1967-10-15 12:00:00 Temperatura 9.0 del 15-10-1967 09:00, Menor que la Mínima 9.8 15-10-1967 12:00 9.0 -- 9.8 2012-12-03 12:53:00
2 1967-10-17 12:00:00 Temperatura 11.0 del 17-10-1967 09:00, Menor que la Mínima 12.0 17-10-1967 12:00 11.0 -- 12.0 2012-12-03 12:53:00
2 1967-12-29 12:00:00 Temperatura 13.0 del 29-12-1967 09:00, Menor que la Mínima 13.2 29-12-1967 12:00 13.0 -- 13.2 2012-12-03 12:53:00
2 1968-01-02 12:00:00 Temperatura 13.0 del 02-01-1968 09:00, Menor que la Mínima 13.4 02-01-1968 12:00 13.0 -- 13.4 2012-12-03 12:53:00
2 1968-01-05 12:00:00 Temperatura 13.0 del 05-01-1968 09:00, Menor que la Mínima 13.1 05-01-1968 12:00 13.0 -- 13.1 2012-12-03 12:53:00
2 1968-02-03 12:00:00 Temperatura 16.0 del 03-02-1968 09:00, Menor que la Mínima 17.7 03-02-1968 12:00 16.0 -- 17.7 2012-12-03 12:53:00
2 1968-02-09 12:00:00 Temperatura 15.1 del 09-02-1968 09:00, Menor que la Mínima 15.4 09-02-1968 12:00 15.1 -- 15.4 2012-12-03 12:53:00
2 1968-02-25 12:00:00 Temperatura 15.4 del 25-02-1968 06:00, Menor que la Mínima 15.6 25-02-1968 12:00 15.4 -- 15.6 2012-12-03 12:53:00
2 1968-03-10 12:00:00 Temperatura 13.1 del 10-03-1968 09:00, Menor que la Mínima 13.2 10-03-1968 12:00 13.1 -- 13.2 2012-12-03 12:53:00
2 1968-03-23 12:00:00 Temperatura 11.2 del 23-03-1968 09:00, Menor que la Mínima 12.4 23-03-1968 12:00 11.2 -- 12.4 2012-12-03 12:53:00
2 1968-03-24 12:00:00 Temperatura 11.2 del 24-03-1968 09:00, Menor que la Mínima 13.4 24-03-1968 12:00 11.2 -- 13.4 2012-12-03 12:53:00
2 1968-04-02 12:00:00 Temperatura 11.5 del 02-04-1968 09:00, Menor que la Mínima 12.2 02-04-1968 12:00 11.5 -- 12.2 2012-12-03 12:53:00
2 1968-04-15 12:00:00 Temperatura 13.0 del 15-04-1968 09:00, Menor que la Mínima 14.4 15-04-1968 12:00 13.0 -- 14.4 2012-12-03 12:53:00
2 1968-05-27 12:00:00 Temperatura 8.5 del 27-05-1968 09:00, Menor que la Mínima 9.0 27-05-1968 12:00 8.5 -- 9.0 2012-12-03 12:53:00
2 1968-06-11 12:00:00 Temperatura 10.8 del 11-06-1968 09:00, Menor que la Mínima 11.0 11-06-1968 12:00 10.8 -- 11.0 2012-12-03 12:53:00
2 1968-06-18 12:00:00 Temperatura 7.4 del 18-06-1968 09:00, Menor que la Mínima 7.6 18-06-1968 12:00 7.4 -- 7.6 2012-12-03 12:53:00
2 1968-06-20 12:00:00 Temperatura 5.6 del 20-06-1968 12:00, Menor que la Mínima 6.4 20-06-1968 12:00 5.6 -- 6.4 2012-12-03 12:53:00
2 1968-09-03 12:00:00 Temperatura 7.4 del 03-09-1968 09:00, Menor que la Mínima 8.9 03-09-1968 12:00 7.4 -- 8.9 2012-12-03 12:53:00
2 1968-09-10 12:00:00 Temperatura 9.0 del 10-09-1968 09:00, Menor que la Mínima 9.1 10-09-1968 12:00 9.0 -- 9.1 2012-12-03 12:53:00
2 1968-10-03 12:00:00 Temperatura 9.0 del 03-10-1968 09:00, Menor que la Mínima 10.2 03-10-1968 12:00 9.0 -- 10.2 2012-12-03 12:53:00
2 1968-10-05 12:00:00 Temperatura 11.0 del 05-10-1968 03:00, Menor que la Mínima 12.0 05-10-1968 12:00 11.0 -- 12.0 2012-12-03 12:53:00
2 1968-10-10 12:00:00 Temperatura 10.0 del 10-10-1968 06:00, Menor que la Mínima 11.2 10-10-1968 12:00 10.0 -- 11.2 2012-12-03 12:53:00
2 1968-10-15 12:00:00 Temperatura 10.0 del 15-10-1968 09:00, Menor que la Mínima 10.2 15-10-1968 12:00 10.0 -- 10.2 2012-12-03 12:53:00
2 1968-10-16 12:00:00 Temperatura 10.0 del 16-10-1968 09:00, Menor que la Mínima 11.8 16-10-1968 12:00 10.0 -- 11.8 2012-12-03 12:53:00
2 1968-10-26 12:00:00 Temperatura 10.0 del 26-10-1968 09:00, Menor que la Mínima 10.5 26-10-1968 12:00 10.0 -- 10.5 2012-12-03 12:53:00
2 1968-11-07 12:00:00 Temperatura 11.0 del 07-11-1968 06:00, Menor que la Mínima 11.5 07-11-1968 12:00 11.0 -- 11.5 2012-12-03 12:53:00
2 1968-11-09 12:00:00 Temperatura 11.0 del 09-11-1968 09:00, Menor que la Mínima 11.8 09-11-1968 12:00 11.0 -- 11.8 2012-12-03 12:53:00
2 1968-11-14 12:00:00 Temperatura 11.0 del 14-11-1968 06:00, Menor que la Mínima 12.0 14-11-1968 12:00 11.0 -- 12.0 2012-12-03 12:53:00
2 1968-11-26 12:00:00 Temperatura 10.0 del 26-11-1968 09:00, Menor que la Mínima 10.4 26-11-1968 12:00 10.0 -- 10.4 2012-12-03 12:53:00
2 1968-12-15 12:00:00 Temperatura 14.0 del 15-12-1968 09:00, Menor que la Mínima 14.8 15-12-1968 12:00 14.0 -- 14.8 2012-12-03 12:53:00
2 1968-12-23 12:00:00 Temperatura 12.1 del 23-12-1968 09:00, Menor que la Mínima 17.0 23-12-1968 12:00 12.1 -- 17.0 2012-12-03 12:53:00
2 1968-12-26 12:00:00 Temperatura 13.8 del 26-12-1968 09:00, Menor que la Mínima 14.2 26-12-1968 12:00 13.8 -- 14.2 2012-12-03 12:53:00
Errores del Nivel 310
Informe generado el 16-07-2024 20:49
Requerimiento: RE6001